Mary Roberts — WDG9020 — position and weather

sailwx.info

Track history (hours):
 
Tides and Currents Weather Stations Pressure Air Temp Water Temp Dewpoint Dewpoint Depression Visibility Wind Speed Wind Dir Waves Ship Positions

Mary Roberts

Owner: Martin Operating Partnership LP, La Porte, TX. More information available from US FCC via Universal Licensing System and Coast Guard Vessel Documentation Center.

Last reported at 2017-Dec-12 08:47 UTC. Time now 2017-Dec-16 07:19 UTC.
Position N 30°04' W 093°39'.

; draft 3 m.

Type: Tug. MMSI: 367583480.

Date/timePositionNaut miles runAvg speedWind from/ knotsBaromVisibWave heightAir tempDewpointWater temp
2017-Dec-12 08:47N 30°04' W 093°39'20 1.6
2017-Dec-11 20:33N 30°04' W 093°16'0 0.2
2017-Dec-11 20:31N 30°04' W 093°16'0 0.0
2017-Dec-11 19:39N 30°04' W 093°16'0 0.0
2017-Dec-11 19:31N 30°04' W 093°16'0 0.0
2017-Dec-11 19:01N 30°04' W 093°16'0 0.0
2017-Dec-11 18:31N 30°04' W 093°16'0 0.0
2017-Dec-11 18:00N 30°04' W 093°16'0 0.9
2017-Dec-11 17:31N 30°04' W 093°16'0 0.3
2017-Dec-11 17:01N 30°04' W 093°16'0 0.1
2017-Dec-11 16:31N 30°04' W 093°16'2 4.7
2017-Dec-11 16:00N 30°02' W 093°14'3 6.3
2017-Dec-11 15:31N 29°59' W 093°12'7 5.1
2017-Dec-11 14:11N 29°56' W 093°05'20 5.7
2017-Dec-11 10:38N 29°57' W 092°42'4 5.8
2017-Dec-11 09:53N 29°55' W 092°37'2 6.0
2017-Dec-11 09:29N 29°55' W 092°35'11 5.8
2017-Dec-11 07:37N 29°52' W 092°23'1 5.5
2017-Dec-11 07:21N 29°51' W 092°22'2 4.5
2017-Dec-11 07:01N 29°51' W 092°20'2 3.8
2017-Dec-11 06:30N 29°50' W 092°18'3 5.3
2017-Dec-11 06:00N 29°48' W 092°16'3 5.7
2017-Dec-11 05:30N 29°47' W 092°13'1 2.8
2017-Dec-11 05:00N 29°47' W 092°11'1 2.2
2017-Dec-11 04:30N 29°47' W 092°10'3 6.3
2017-Dec-11 04:01N 29°48' W 092°06'3 6.4
2017-Dec-11 03:31N 29°49' W 092°03'3 6.5
2017-Dec-11 03:01N 29°50' W 091°59'60 5.0
2017-Dec-10 14:57N 29°32' W 090°53'3 7.2
2017-Dec-10 14:30N 29°32' W 090°49'3 6.5
2017-Dec-10 14:01N 29°33' W 090°46'1 1.8
2017-Dec-10 13:30N 29°33' W 090°45'0 0.0
2017-Dec-10 13:00N 29°33' W 090°45'0 0.0
2017-Dec-10 12:30N 29°33' W 090°45'0 0.0
2017-Dec-10 12:01N 29°33' W 090°45'0 0.0
2017-Dec-10 11:30N 29°33' W 090°45'0 0.0
2017-Dec-10 11:01N 29°33' W 090°45'0 0.0
2017-Dec-10 10:31N 29°33' W 090°45'0 0.0
2017-Dec-10 10:00N 29°33' W 090°45'0 0.0
2017-Dec-10 09:30N 29°33' W 090°45'0 0.4
2017-Dec-10 09:01N 29°34' W 090°45'2 4.0
2017-Dec-10 08:31N 29°35' W 090°43'2 4.6
2017-Dec-10 08:01N 29°37' W 090°42'3 5.8
2017-Dec-10 07:30N 29°35' W 090°39'3 5.4
2017-Dec-10 07:00N 29°35' W 090°36'3 5.4
2017-Dec-10 06:29N 29°34' W 090°33'3 5.8
2017-Dec-10 05:55N 29°34' W 090°29'3 5.8
2017-Dec-10 05:25N 29°33' W 090°26'  
Track history (hours):
 
Tides and Currents Weather Stations Pressure Air Temp Water Temp Dewpoint Dewpoint Depression Visibility Wind Speed Wind Dir Waves Ship Positions

Mary Roberts

Owner: Martin Operating Partnership LP, La Porte, TX. More information available from US FCC via Universal Licensing System and Coast Guard Vessel Documentation Center.

Last reported at 2017-Dec-12 08:47 UTC. Time now 2017-Dec-16 07:19 UTC.
Position N 30°04' W 093°39'.

; draft 3 m.

Type: Tug. MMSI: 367583480.

Date/timePositionNaut miles runAvg speedWind from/ knotsBaromVisibWave heightAir tempDewpointWater temp
2017-Dec-12 08:47N 30°04' W 093°39'20 1.6
2017-Dec-11 20:33N 30°04' W 093°16'0 0.2
2017-Dec-11 20:31N 30°04' W 093°16'0 0.0
2017-Dec-11 19:39N 30°04' W 093°16'0 0.0
2017-Dec-11 19:31N 30°04' W 093°16'0 0.0
2017-Dec-11 19:01N 30°04' W 093°16'0 0.0
2017-Dec-11 18:31N 30°04' W 093°16'0 0.0
2017-Dec-11 18:00N 30°04' W 093°16'0 0.9
2017-Dec-11 17:31N 30°04' W 093°16'0 0.3
2017-Dec-11 17:01N 30°04' W 093°16'0 0.1
2017-Dec-11 16:31N 30°04' W 093°16'2 4.7
2017-Dec-11 16:00N 30°02' W 093°14'3 6.3
2017-Dec-11 15:31N 29°59' W 093°12'7 5.1
2017-Dec-11 14:11N 29°56' W 093°05'20 5.7
2017-Dec-11 10:38N 29°57' W 092°42'4 5.8
2017-Dec-11 09:53N 29°55' W 092°37'2 6.0
2017-Dec-11 09:29N 29°55' W 092°35'11 5.8
2017-Dec-11 07:37N 29°52' W 092°23'1 5.5
2017-Dec-11 07:21N 29°51' W 092°22'2 4.5
2017-Dec-11 07:01N 29°51' W 092°20'2 3.8
2017-Dec-11 06:30N 29°50' W 092°18'3 5.3
2017-Dec-11 06:00N 29°48' W 092°16'3 5.7
2017-Dec-11 05:30N 29°47' W 092°13'1 2.8
2017-Dec-11 05:00N 29°47' W 092°11'1 2.2
2017-Dec-11 04:30N 29°47' W 092°10'3 6.3
2017-Dec-11 04:01N 29°48' W 092°06'3 6.4
2017-Dec-11 03:31N 29°49' W 092°03'3 6.5
2017-Dec-11 03:01N 29°50' W 091°59'60 5.0
2017-Dec-10 14:57N 29°32' W 090°53'3 7.2
2017-Dec-10 14:30N 29°32' W 090°49'3 6.5
2017-Dec-10 14:01N 29°33' W 090°46'1 1.8
2017-Dec-10 13:30N 29°33' W 090°45'0 0.0
2017-Dec-10 13:00N 29°33' W 090°45'0 0.0
2017-Dec-10 12:30N 29°33' W 090°45'0 0.0
2017-Dec-10 12:01N 29°33' W 090°45'0 0.0
2017-Dec-10 11:30N 29°33' W 090°45'0 0.0
2017-Dec-10 11:01N 29°33' W 090°45'0 0.0
2017-Dec-10 10:31N 29°33' W 090°45'0 0.0
2017-Dec-10 10:00N 29°33' W 090°45'0 0.0
2017-Dec-10 09:30N 29°33' W 090°45'0 0.4
2017-Dec-10 09:01N 29°34' W 090°45'2 4.0
2017-Dec-10 08:31N 29°35' W 090°43'2 4.6
2017-Dec-10 08:01N 29°37' W 090°42'3 5.8
2017-Dec-10 07:30N 29°35' W 090°39'3 5.4
2017-Dec-10 07:00N 29°35' W 090°36'3 5.4
2017-Dec-10 06:29N 29°34' W 090°33'3 5.8
2017-Dec-10 05:55N 29°34' W 090°29'3 5.8
2017-Dec-10 05:25N 29°33' W 090°26'  

Dump ship's entire track history